createdAt,value
2023-03-02T00:01:08.382Z,4.13
2023-03-02T00:03:38.423Z,4.78
2023-03-02T00:06:07.780Z,4.32
2023-03-02T00:08:36.626Z,4.88
2023-03-02T00:11:06.444Z,3.10
2023-03-02T00:13:36.961Z,2.75
2023-03-02T00:16:05.501Z,4.18
2023-03-02T00:18:33.698Z,4.22
2023-03-02T00:21:01.950Z,5.40
2023-03-02T00:23:30.147Z,4.03
2023-03-02T00:25:58.301Z,4.50
2023-03-02T00:28:28.611Z,4.07
2023-03-02T00:30:56.881Z,4.67
2023-03-02T00:33:25.091Z,3.25
2023-03-02T00:35:53.234Z,4.72
2023-03-02T00:38:21.444Z,4.30
2023-03-02T00:40:50.785Z,2.53
2023-03-02T00:43:19.030Z,4.50
2023-03-02T00:45:48.761Z,3.80
2023-03-02T00:48:17.116Z,4.07
2023-03-02T00:50:45.444Z,2.90
2023-03-02T00:53:13.644Z,4.18
2023-03-02T00:55:41.922Z,3.50
2023-03-02T00:58:10.068Z,2.95
2023-03-02T01:00:38.693Z,3.28
2023-03-02T01:03:08.395Z,5.00
2023-03-02T01:05:38.124Z,3.85
2023-03-02T01:08:06.643Z,3.35
2023-03-02T01:10:35.390Z,3.58
2023-03-02T01:13:03.580Z,4.10
2023-03-02T01:15:31.774Z,3.65
2023-03-02T01:18:00.591Z,2.85
2023-03-02T01:20:30.198Z,3.95
2023-03-02T01:22:58.862Z,3.70
2023-03-02T01:25:27.112Z,3.80
2023-03-02T01:27:55.643Z,3.80
2023-03-02T01:30:23.934Z,3.97
2023-03-02T01:32:52.157Z,3.00
2023-03-02T01:35:20.544Z,3.33
2023-03-02T01:37:50.168Z,6.68
2023-03-02T01:40:18.349Z,3.75
2023-03-02T01:42:58.304Z,3.70
2023-03-02T01:45:58.301Z,5.20
2023-03-02T01:48:30.863Z,3.35
2023-03-02T01:50:59.716Z,3.83
2023-03-02T01:53:32.484Z,3.08
2023-03-02T01:56:01.873Z,3.35
2023-03-02T01:58:32.506Z,3.45
2023-03-02T02:01:01.413Z,3.88
2023-03-02T02:03:32.456Z,4.00
2023-03-02T02:08:35.390Z,3.20
2023-03-02T02:11:03.685Z,3.77
2023-03-02T02:13:32.075Z,3.95
2023-03-02T02:16:00.228Z,4.22
2023-03-02T02:18:28.636Z,3.15
2023-03-02T02:20:57.359Z,3.17
2023-03-02T02:23:32.825Z,3.00
2023-03-02T02:26:18.750Z,3.42
2023-03-02T02:28:57.585Z,3.33
2023-03-02T02:31:32.079Z,3.45
2023-03-02T02:34:05.172Z,4.32
2023-03-02T02:36:38.564Z,3.45
2023-03-02T02:39:09.500Z,2.92
2023-03-02T02:41:41.589Z,2.63
2023-03-02T02:44:14.121Z,3.40
2023-03-02T02:46:42.518Z,3.17
2023-03-02T02:49:22.592Z,3.22
2023-03-02T02:51:50.908Z,3.45
2023-03-02T02:54:20.679Z,2.60
2023-03-02T02:56:52.170Z,3.55
2023-03-02T02:59:24.380Z,2.60
2023-03-02T03:01:53.194Z,3.15
2023-03-02T03:04:24.624Z,3.38
2023-03-02T03:06:55.109Z,3.83
2023-03-02T03:09:23.782Z,3.65
2023-03-02T03:11:55.668Z,3.15
2023-03-02T03:14:29.150Z,3.03
2023-03-02T03:16:57.375Z,2.63
2023-03-02T03:19:28.895Z,2.85
2023-03-02T03:21:59.634Z,3.30
2023-03-02T03:24:29.948Z,5.38
2023-03-02T03:26:59.937Z,3.33
2023-03-02T03:29:30.492Z,1.90
2023-03-02T03:31:59.922Z,2.88
2023-03-02T03:34:29.110Z,3.97
2023-03-02T03:37:01.707Z,2.70
2023-03-02T03:39:30.623Z,2.80
2023-03-02T03:42:00.206Z,2.55
2023-03-02T03:44:28.651Z,2.95
2023-03-02T03:46:57.261Z,3.20
2023-03-02T03:49:25.975Z,3.92
2023-03-02T03:51:54.930Z,3.08
2023-03-02T03:54:23.157Z,3.75
2023-03-02T03:56:51.953Z,3.20
2023-03-02T03:59:24.400Z,2.78
2023-03-02T04:01:54.568Z,2.95
2023-03-02T04:04:24.741Z,3.23
2023-03-02T04:06:53.553Z,2.97
2023-03-02T04:09:22.204Z,2.53
2023-03-02T04:11:52.350Z,2.95
2023-03-02T04:14:23.117Z,2.40
2023-03-02T04:16:51.455Z,2.75
2023-03-02T04:19:19.904Z,3.92
2023-03-02T04:21:50.576Z,2.92
2023-03-02T04:24:21.207Z,3.72
2023-03-02T04:26:50.525Z,3.78
2023-03-02T04:29:21.612Z,3.33
2023-03-02T04:34:17.768Z,2.88
2023-03-02T04:36:46.660Z,2.47
2023-03-02T04:39:16.840Z,2.92
2023-03-02T04:41:45.313Z,2.57
2023-03-02T04:44:14.602Z,4.28
2023-03-02T04:46:45.076Z,2.92
2023-03-02T04:49:13.833Z,3.17
2023-03-02T04:51:45.102Z,2.33
2023-03-02T04:54:17.843Z,3.65
2023-03-02T04:56:48.556Z,3.33
2023-03-02T04:59:17.224Z,3.08
2023-03-02T05:01:47.647Z,2.35
2023-03-02T05:04:16.425Z,3.42
2023-03-02T05:06:44.846Z,2.60
2023-03-02T05:09:13.629Z,4.15
2023-03-02T05:11:42.203Z,3.80
2023-03-02T05:14:12.975Z,3.40
2023-03-02T05:16:42.346Z,3.50
2023-03-02T05:19:13.435Z,3.15
2023-03-02T05:24:09.888Z,2.95
2023-03-02T05:26:38.401Z,2.13
2023-03-02T05:29:07.042Z,2.88
2023-03-02T05:31:37.689Z,3.03
2023-03-02T05:34:08.016Z,4.30
2023-03-02T05:36:37.718Z,3.87
2023-03-02T05:39:07.092Z,2.92
2023-03-02T05:41:35.365Z,2.75
2023-03-02T05:44:03.966Z,2.65
2023-03-02T05:46:32.569Z,2.58
2023-03-02T05:49:01.059Z,2.67
2023-03-02T05:51:29.333Z,2.88
2023-03-02T05:53:58.934Z,3.95
2023-03-02T05:56:27.202Z,2.80
2023-03-02T05:58:55.544Z,2.30
2023-03-02T06:01:23.864Z,3.25
2023-03-02T06:03:52.119Z,2.80
2023-03-02T06:06:20.370Z,3.25
2023-03-02T06:08:48.659Z,2.35
2023-03-02T06:11:18.225Z,2.85
2023-03-02T06:13:46.401Z,2.75
2023-03-02T06:16:14.614Z,2.63
2023-03-02T06:18:42.811Z,2.03
2023-03-02T06:21:11.161Z,3.55
2023-03-02T06:23:39.358Z,2.35
2023-03-02T06:26:10.889Z,2.42
2023-03-02T06:28:52.214Z,3.72
2023-03-02T06:31:21.390Z,3.38
2023-03-02T06:33:49.664Z,2.40
2023-03-02T06:36:18.261Z,2.70
2023-03-02T06:38:46.555Z,2.90
2023-03-02T06:41:14.868Z,3.13
2023-03-02T06:43:44.976Z,6.03
2023-03-02T06:46:13.501Z,4.30
2023-03-02T06:48:41.785Z,4.68
2023-03-02T06:51:09.977Z,3.00
2023-03-02T06:53:38.219Z,4.20
2023-03-02T06:56:07.565Z,4.32
2023-03-02T06:58:35.906Z,2.92
2023-03-02T07:01:07.841Z,3.10
2023-03-02T07:03:37.097Z,4.28
2023-03-02T07:06:05.992Z,4.55
2023-03-02T07:08:34.798Z,2.90
2023-03-02T07:11:06.534Z,4.20
2023-03-02T07:13:34.909Z,3.20
2023-03-02T07:16:09.553Z,3.15
2023-03-02T07:18:37.900Z,3.05
2023-03-02T07:21:06.511Z,4.00
2023-03-02T07:23:35.016Z,3.03
2023-03-02T07:26:05.262Z,2.45
2023-03-02T07:28:33.414Z,2.83
2023-03-02T07:31:01.768Z,2.70
2023-03-02T07:33:31.432Z,3.47
2023-03-02T07:35:59.705Z,2.92
2023-03-02T07:38:28.254Z,4.00
2023-03-02T07:40:56.709Z,2.97
2023-03-02T07:43:26.622Z,3.05
2023-03-02T07:45:54.935Z,4.03
2023-03-02T07:48:23.496Z,3.17
2023-03-02T07:50:53.215Z,2.92
2023-03-02T07:53:21.467Z,2.85
2023-03-02T07:55:49.727Z,3.20
2023-03-02T07:58:18.109Z,3.60
2023-03-02T08:00:46.434Z,10.50
2023-03-02T08:03:14.867Z,10.85
2023-03-02T08:05:43.291Z,9.30
2023-03-02T08:08:12.865Z,6.03
2023-03-02T08:10:41.140Z,7.03
2023-03-02T08:13:09.397Z,5.05
2023-03-02T08:15:37.542Z,6.90
2023-03-02T08:18:06.003Z,8.45
2023-03-02T08:20:34.263Z,4.20
2023-03-02T08:23:02.514Z,5.65
2023-03-02T08:25:32.101Z,5.32
2023-03-02T08:28:00.420Z,5.97
2023-03-02T08:30:28.634Z,7.35
2023-03-02T08:32:56.873Z,4.43
2023-03-02T08:35:25.613Z,5.55
2023-03-02T08:37:54.174Z,5.13
2023-03-02T08:40:22.655Z,5.00
2023-03-02T08:42:57.012Z,4.78
2023-03-02T08:45:25.434Z,5.50
2023-03-02T08:47:54.901Z,5.47
2023-03-02T08:50:23.116Z,5.63
2023-03-02T08:52:52.677Z,3.65
2023-03-02T08:55:20.979Z,4.35
2023-03-02T08:57:49.151Z,4.88
2023-03-02T09:00:19.859Z,8.23
2023-03-02T09:02:48.125Z,6.47
2023-03-02T09:05:16.549Z,10.68
2023-03-02T09:07:45.245Z,6.60
2023-03-02T09:10:13.533Z,6.65
2023-03-02T09:12:41.885Z,7.97
2023-03-02T09:15:10.672Z,6.38
2023-03-02T09:17:40.294Z,5.32
2023-03-02T09:20:10.166Z,5.45
2023-03-02T09:22:38.491Z,4.78
2023-03-02T09:25:08.018Z,8.98
2023-03-02T09:27:36.522Z,6.32
2023-03-02T09:30:04.975Z,5.28
2023-03-02T09:32:33.420Z,7.47
2023-03-02T09:35:03.368Z,6.00
2023-03-02T09:37:32.317Z,6.82
2023-03-02T09:40:01.109Z,6.03
2023-03-02T09:42:47.918Z,6.57
2023-03-02T09:45:52.518Z,4.68
2023-03-02T09:48:32.425Z,5.10
2023-03-02T09:51:15.334Z,8.13
2023-03-02T09:53:52.585Z,5.78
2023-03-02T09:56:22.408Z,7.25
2023-03-02T09:58:57.147Z,5.53
2023-03-02T10:01:35.860Z,5.65
2023-03-02T10:04:23.059Z,4.75
2023-03-02T10:06:58.855Z,7.85
2023-03-02T10:09:27.487Z,6.47
2023-03-02T10:12:13.922Z,5.05
2023-03-02T10:14:48.753Z,6.43
2023-03-02T10:17:38.301Z,5.38
2023-03-02T10:20:15.585Z,6.68
2023-03-02T10:22:51.367Z,4.90
2023-03-02T10:25:29.811Z,4.15
2023-03-02T10:28:02.706Z,6.80
2023-03-02T10:30:35.326Z,9.32
2023-03-02T10:33:10.743Z,4.70
2023-03-02T10:35:41.672Z,4.93
2023-03-02T10:38:15.573Z,5.53
2023-03-02T10:40:47.300Z,4.25
2023-03-02T10:43:20.278Z,6.78
2023-03-02T10:46:00.381Z,5.93
2023-03-02T10:48:28.723Z,5.25
2023-03-02T10:50:58.981Z,5.30
2023-03-02T10:53:29.214Z,3.90
2023-03-02T10:55:57.467Z,4.60
2023-03-02T10:58:30.593Z,4.70
2023-03-02T11:01:04.125Z,5.63
2023-03-02T11:03:33.470Z,5.38
2023-03-02T11:06:20.649Z,3.83
2023-03-02T11:09:00.148Z,4.90
2023-03-02T11:11:28.863Z,3.97
2023-03-02T11:13:57.652Z,4.72
2023-03-02T11:16:32.360Z,5.43
2023-03-02T11:19:03.964Z,3.67
2023-03-02T11:21:36.221Z,4.78
2023-03-02T11:24:11.677Z,4.45
2023-03-02T11:26:46.286Z,4.97
2023-03-02T11:29:30.268Z,4.78
2023-03-02T11:32:02.633Z,4.72
2023-03-02T11:34:35.606Z,5.78
2023-03-02T11:37:15.050Z,3.92
2023-03-02T11:40:06.428Z,3.20
2023-03-02T11:42:37.479Z,5.25
2023-03-02T11:47:57.450Z,4.00
2023-03-02T11:50:29.873Z,3.22
2023-03-02T11:53:01.694Z,3.40
2023-03-02T11:55:35.196Z,3.30
2023-03-02T11:58:05.370Z,4.13
2023-03-02T12:00:36.958Z,4.27
2023-03-02T12:03:07.191Z,3.97
2023-03-02T12:05:38.795Z,4.17
2023-03-02T12:08:09.028Z,4.93
2023-03-02T12:10:42.199Z,6.80
2023-03-02T12:13:19.612Z,3.33
2023-03-02T12:15:50.762Z,3.08
2023-03-02T12:18:44.329Z,2.75
2023-03-02T12:21:16.590Z,3.45
2023-03-02T12:24:00.077Z,2.88
2023-03-02T12:26:34.046Z,3.63
2023-03-02T12:29:06.600Z,2.30
2023-03-02T12:31:43.343Z,2.90
2023-03-02T12:34:37.533Z,3.28
2023-03-02T12:37:13.925Z,2.97
2023-03-02T12:40:03.583Z,2.58
2023-03-02T12:42:48.776Z,2.20
2023-03-02T12:45:29.007Z,3.03
2023-03-02T12:48:03.710Z,2.63
2023-03-02T12:50:38.165Z,5.53
2023-03-02T12:53:16.057Z,2.65
2023-03-02T12:55:44.533Z,2.95
2023-03-02T12:58:19.153Z,3.33
2023-03-02T13:00:53.397Z,3.45
2023-03-02T13:03:21.863Z,4.15
2023-03-02T13:05:50.365Z,5.03
2023-03-02T13:08:24.239Z,3.13
2023-03-02T13:10:55.098Z,3.10
2023-03-02T13:13:28.633Z,5.22
2023-03-02T13:15:58.347Z,3.70
2023-03-02T13:18:32.007Z,3.95
2023-03-02T13:21:01.373Z,3.60
2023-03-02T13:23:32.022Z,5.57
2023-03-02T13:26:01.660Z,5.20
2023-03-02T13:28:34.003Z,4.45
2023-03-02T13:31:05.196Z,6.35
2023-03-02T13:33:36.357Z,30.25
2023-03-02T13:38:36.869Z,31.55
2023-03-02T13:41:06.136Z,26.02
2023-03-02T13:43:40.638Z,23.42
2023-03-02T13:46:35.069Z,22.45
2023-03-02T13:49:10.822Z,23.85
2023-03-02T13:51:42.329Z,22.88
2023-03-02T13:54:20.689Z,24.50
2023-03-02T13:56:49.501Z,26.50
2023-03-02T13:59:21.202Z,25.48
2023-03-02T14:01:49.632Z,22.98
2023-03-02T14:04:21.700Z,24.52
2023-03-02T14:06:50.707Z,25.08
2023-03-02T14:09:18.862Z,23.73
2023-03-02T14:11:50.442Z,22.45
2023-03-02T14:14:22.615Z,19.40
2023-03-02T14:16:51.607Z,15.00
2023-03-02T14:19:20.255Z,17.52
2023-03-02T14:21:49.590Z,21.10
2023-03-02T14:24:17.759Z,19.20
2023-03-02T14:26:47.906Z,22.80
2023-03-02T14:29:24.027Z,18.87
2023-03-02T14:31:52.744Z,17.80
2023-03-02T14:34:21.088Z,20.10
2023-03-02T14:36:52.028Z,14.35
2023-03-02T14:41:54.191Z,19.35
2023-03-02T14:44:24.575Z,13.55
2023-03-02T14:46:53.107Z,12.98
2023-03-02T14:49:21.936Z,14.77
2023-03-02T14:51:58.824Z,13.02
2023-03-02T14:54:27.776Z,13.23
2023-03-02T14:56:56.162Z,9.75
2023-03-02T14:59:25.840Z,13.27
2023-03-02T15:01:55.723Z,10.55
2023-03-02T15:06:53.544Z,7.80
2023-03-02T15:09:21.700Z,9.50
2023-03-02T15:11:50.806Z,12.63
2023-03-02T15:14:19.004Z,14.02
2023-03-02T15:16:48.678Z,11.82
2023-03-02T15:19:16.826Z,12.50
2023-03-02T15:21:46.516Z,11.45
2023-03-02T15:24:14.852Z,10.73
2023-03-02T15:26:42.982Z,10.35
2023-03-02T15:29:11.364Z,9.32
2023-03-02T15:31:39.811Z,8.95
2023-03-02T15:34:09.569Z,9.35
2023-03-02T15:36:39.826Z,9.63
2023-03-02T15:39:09.997Z,11.63
2023-03-02T15:41:47.813Z,11.07
2023-03-02T15:44:21.986Z,8.27
2023-03-02T15:46:51.649Z,8.32
2023-03-02T15:49:24.459Z,13.65
2023-03-02T15:51:54.502Z,11.18
2023-03-02T15:54:23.213Z,10.80
2023-03-02T15:56:53.224Z,9.25
2023-03-02T15:59:22.312Z,10.65
2023-03-02T16:01:50.946Z,7.50
2023-03-02T16:04:21.143Z,18.30
2023-03-02T16:06:49.453Z,19.90
2023-03-02T16:09:17.819Z,16.17
2023-03-02T16:11:46.064Z,11.82
2023-03-02T16:14:15.637Z,13.98
2023-03-02T16:16:44.394Z,13.15
2023-03-02T16:19:16.622Z,7.97
2023-03-02T16:21:47.869Z,13.30
2023-03-02T16:24:17.342Z,19.97
2023-03-02T16:26:46.122Z,10.88
2023-03-02T16:29:15.031Z,11.48
2023-03-02T16:31:46.231Z,9.77
2023-03-02T16:34:14.930Z,11.15
2023-03-02T16:36:43.711Z,10.73
2023-03-02T16:39:14.314Z,11.75
2023-03-02T16:41:46.172Z,13.10
2023-03-02T16:44:16.208Z,12.63
2023-03-02T16:46:44.870Z,9.18
2023-03-02T16:49:14.111Z,11.32
2023-03-02T16:51:43.106Z,8.95
2023-03-02T16:54:15.927Z,9.45
2023-03-02T16:56:47.492Z,9.30
2023-03-02T16:59:16.014Z,8.50
2023-03-02T17:01:44.306Z,8.27
2023-03-02T17:04:12.636Z,9.25
2023-03-02T17:06:59.607Z,9.85
2023-03-02T17:09:30.072Z,6.32
2023-03-02T17:11:58.491Z,10.05
2023-03-02T17:14:27.191Z,9.18
2023-03-02T17:16:56.456Z,9.07
2023-03-02T17:19:26.820Z,7.85
2023-03-02T17:21:57.096Z,8.18
2023-03-02T17:24:25.396Z,7.40
2023-03-02T17:26:55.164Z,7.82
2023-03-02T17:29:23.757Z,7.10
2023-03-02T17:31:52.026Z,5.68
2023-03-02T17:34:20.256Z,6.03
2023-03-02T17:36:48.478Z,6.72
2023-03-02T17:39:16.757Z,9.43
2023-03-02T17:41:44.997Z,9.63
2023-03-02T17:44:14.709Z,7.90
2023-03-02T17:46:45.427Z,8.32
2023-03-02T17:49:14.341Z,7.88
2023-03-02T17:51:42.706Z,7.97
2023-03-02T17:54:11.242Z,8.52
2023-03-02T17:56:39.524Z,7.95
2023-03-02T17:59:07.997Z,7.13
2023-03-02T18:01:37.545Z,8.68
2023-03-02T18:04:06.094Z,7.45
2023-03-02T18:06:34.824Z,6.90
2023-03-02T18:09:03.060Z,7.45
2023-03-02T18:11:31.449Z,9.68
2023-03-02T18:14:00.256Z,6.85
2023-03-02T18:16:29.544Z,7.50
2023-03-02T18:18:59.336Z,10.55
2023-03-02T18:21:27.817Z,8.60
2023-03-02T18:23:56.475Z,7.47
2023-03-02T18:26:25.016Z,8.07
2023-03-02T18:28:53.552Z,7.75
2023-03-02T18:31:22.439Z,7.85
2023-03-02T18:33:51.254Z,8.27
2023-03-02T18:36:20.974Z,6.07
2023-03-02T18:38:53.137Z,6.72
2023-03-02T18:41:22.520Z,9.30
2023-03-02T18:43:51.071Z,8.25
2023-03-02T18:46:21.745Z,6.85
2023-03-02T18:48:51.106Z,7.20
2023-03-02T18:51:21.745Z,7.03
2023-03-02T18:53:51.064Z,6.47
2023-03-02T18:56:20.005Z,6.57
2023-03-02T18:58:49.682Z,8.20
2023-03-02T19:01:18.683Z,8.90
2023-03-02T19:03:47.177Z,9.75
2023-03-02T19:06:16.522Z,7.97
2023-03-02T19:08:48.254Z,6.30
2023-03-02T19:11:16.698Z,7.35
2023-03-02T19:13:45.024Z,7.75
2023-03-02T19:16:13.461Z,7.47
2023-03-02T19:18:41.835Z,8.30
2023-03-02T19:21:10.107Z,6.28
2023-03-02T19:23:38.430Z,6.95
2023-03-02T19:26:08.661Z,6.88
2023-03-02T19:28:38.468Z,9.30
2023-03-02T19:31:08.859Z,7.07
2023-03-02T19:33:37.445Z,9.35
2023-03-02T19:36:06.489Z,7.43
2023-03-02T19:38:37.992Z,7.40
2023-03-02T19:41:09.242Z,7.32
2023-03-02T19:43:38.154Z,7.22
2023-03-02T19:46:06.658Z,7.55
2023-03-02T19:48:35.648Z,8.43
2023-03-02T19:51:05.153Z,8.77
2023-03-02T19:53:33.676Z,8.35
2023-03-02T19:56:03.066Z,9.10
2023-03-02T19:58:33.372Z,6.32
2023-03-02T20:01:01.723Z,7.53
2023-03-02T20:03:30.147Z,6.18
2023-03-02T20:05:59.688Z,6.18
2023-03-02T20:08:28.058Z,10.20
2023-03-02T20:10:56.261Z,10.30
2023-03-02T20:13:26.997Z,6.70
2023-03-02T20:15:56.878Z,6.65
2023-03-02T20:18:25.074Z,7.20
2023-03-02T20:20:53.464Z,6.55
2023-03-02T20:23:21.648Z,8.27
2023-03-02T20:25:50.104Z,7.72
2023-03-02T20:28:22.599Z,7.25
2023-03-02T20:30:53.936Z,9.90
2023-03-02T20:33:27.780Z,6.95
2023-03-02T20:35:56.697Z,9.68
2023-03-02T20:38:30.785Z,6.78
2023-03-02T20:40:59.800Z,7.00
2023-03-02T20:43:28.746Z,5.60
2023-03-02T20:45:57.010Z,6.13
2023-03-02T20:48:27.553Z,7.40
2023-03-02T20:50:56.112Z,7.13
2023-03-02T20:53:24.853Z,6.85
2023-03-02T20:55:53.936Z,6.88
2023-03-02T20:58:22.193Z,6.32
2023-03-02T21:00:50.349Z,6.28
2023-03-02T21:03:18.629Z,6.28
2023-03-02T21:05:48.374Z,7.53
2023-03-02T21:08:16.986Z,6.35
2023-03-02T21:10:45.605Z,6.60
2023-03-02T21:13:14.226Z,6.80
2023-03-02T21:15:43.072Z,6.03
2023-03-02T21:18:11.381Z,8.38
2023-03-02T21:20:40.321Z,7.28
2023-03-02T21:23:11.090Z,6.97
2023-03-02T21:25:42.117Z,5.72
2023-03-02T21:28:10.750Z,5.93
2023-03-02T21:30:38.923Z,7.30
2023-03-02T21:33:07.254Z,6.68
2023-03-02T21:35:36.612Z,6.75
2023-03-02T21:38:05.245Z,5.55
2023-03-02T21:40:37.673Z,6.13
2023-03-02T21:43:07.215Z,6.28
2023-03-02T21:45:35.928Z,7.20
2023-03-02T21:48:05.135Z,6.47
2023-03-02T21:50:37.401Z,7.75
2023-03-02T21:53:06.456Z,8.00
2023-03-02T21:55:38.050Z,6.95
2023-03-02T21:58:06.500Z,7.13
2023-03-02T22:00:36.874Z,6.88
2023-03-02T22:03:05.571Z,8.30
2023-03-02T22:05:34.789Z,6.72
2023-03-02T22:08:03.077Z,7.20
2023-03-02T22:10:33.404Z,6.68
2023-03-02T22:13:18.131Z,6.10
2023-03-02T22:15:47.357Z,7.07
2023-03-02T22:18:18.133Z,6.05
2023-03-02T22:20:48.513Z,6.60
2023-03-02T22:23:19.230Z,7.30
2023-03-02T22:25:47.899Z,6.72
2023-03-02T22:28:19.106Z,6.78
2023-03-02T22:30:50.904Z,7.75
2023-03-02T22:33:21.616Z,7.55
2023-03-02T22:35:51.347Z,7.88
2023-03-02T22:38:25.136Z,8.45
2023-03-02T22:40:53.952Z,5.85
2023-03-02T22:43:26.165Z,7.93
2023-03-02T22:45:55.632Z,7.28
2023-03-02T22:48:28.613Z,7.85
2023-03-02T22:50:56.878Z,8.65
2023-03-02T22:53:28.109Z,7.68
2023-03-02T22:55:58.260Z,6.30
2023-03-02T22:58:45.927Z,9.20
2023-03-02T23:01:25.683Z,7.38
2023-03-02T23:03:55.258Z,8.07
2023-03-02T23:06:34.007Z,7.55
2023-03-02T23:09:03.617Z,7.63
2023-03-02T23:11:35.405Z,7.35
2023-03-02T23:14:14.877Z,7.35
2023-03-02T23:16:43.039Z,7.07
2023-03-02T23:19:11.360Z,7.30
2023-03-02T23:21:41.713Z,7.30
2023-03-02T23:24:10.123Z,6.67
2023-03-02T23:26:38.371Z,7.05
2023-03-02T23:29:08.813Z,7.43
2023-03-02T23:31:37.168Z,6.57
2023-03-02T23:34:05.534Z,7.10
2023-03-02T23:36:33.905Z,7.20
2023-03-02T23:39:02.477Z,7.45
2023-03-02T23:41:30.706Z,6.55
2023-03-02T23:43:59.239Z,6.25
2023-03-02T23:46:28.889Z,7.65
2023-03-02T23:48:57.934Z,6.57
2023-03-02T23:51:26.606Z,7.05
2023-03-02T23:53:55.404Z,6.15
2023-03-02T23:56:23.952Z,7.05
2023-03-02T23:58:52.645Z,6.93
